PWSweather.com
Personal Weather Stations
Station Observations
RRFWEATHER
Rail Road Flat, Rail Road Flat, CA 95248

Rail Road FlatRail Road Flat, CA 95248

Lat: 38.306238, Lon: -120.514548

Elevation: 2808

Station Type: Davis Vantage Pro2

http://www.railroadflat.org

Latest ConditionsUpdated 10:00:05 AM PDT Sunday, Sep 23, 2018
Currently Today's Max Today's Min Today's Average
Temperature 79.3°F26.3°C 79.3°F26.3°C 65.2°F18.4°C 68.0°F20.0°C
Dew Point 34.7°F1.5°C 38.3°F3.5°C 32.9°F0.5°C 35.0°F1.7°C
Winds 1.2 mph SSW1.9 kmh SSW 2.3 mph -3.7 kmh - - 1.0 mph 1.6 kmh
Wind Gusts 3.5 mph5.6 kmh 4.6 mph7.4 kmh - -
Humidity 20% 33% 20% 30%
Pressure 29.84 in1010.5 mb 29.84 in1010.5 mb 29.79 in1008.8 mb -
Hour Temp Dew Point Humidity Winds Wind Gusts Pressure Precip Precip Rate Daily Precip Total
10:00 AM 79.3°F26.3°C 34.7°F1.5°C 20% 1.2 mph SSW1.9 kmh SSW 3.5 mph5.6 kmh 29.84 in1010.5 mb - 0.00 in0.0 mm 0.00 in0.0 mm
09:55 AM 79.2°F26.2°C 37.1°F2.8°C 22% 2.3 mph S3.7 kmh S 4.6 mph7.4 kmh 29.84 in1010.5 mb - 0.00 in0.0 mm 0.00 in0.0 mm
09:50 AM 78.8°F26.0°C 36.7°F2.6°C 22% 1.2 mph S1.9 kmh S 2.3 mph3.7 kmh 29.84 in1010.5 mb - 0.00 in0.0 mm 0.00 in0.0 mm
09:45 AM 78.2°F25.7°C 36.2°F2.3°C 22% 1.2 mph S1.9 kmh S 3.5 mph5.6 kmh 29.84 in1010.5 mb - 0.00 in0.0 mm 0.00 in0.0 mm
09:40 AM 77.5°F25.3°C 35.6°F2.0°C 22% 1.2 mph WSW1.9 kmh WSW 2.3 mph3.7 kmh 29.84 in1010.5 mb - 0.00 in0.0 mm 0.00 in0.0 mm
09:35 AM 77.5°F25.3°C 36.7°F2.6°C 23% 1.2 mph W1.9 kmh W 2.3 mph3.7 kmh 29.84 in1010.5 mb - 0.00 in0.0 mm 0.00 in0.0 mm
09:30 AM 77.2°F25.1°C 36.5°F2.5°C 23% Calm Calm 2.3 mph3.7 kmh 29.84 in1010.5 mb - 0.00 in0.0 mm 0.00 in0.0 mm
09:25 AM 76.8°F24.9°C 38.3°F3.5°C 25% 1.2 mph SW1.9 kmh SW 2.3 mph3.7 kmh 29.84 in1010.5 mb - 0.00 in0.0 mm 0.00 in0.0 mm
09:20 AM 76.6°F24.8°C 36.0°F2.2°C 23% 1.2 mph SW1.9 kmh SW 3.5 mph5.6 kmh 29.83 in1010.2 mb - 0.00 in0.0 mm 0.00 in0.0 mm
09:15 AM 76.4°F24.7°C 36.9°F2.7°C 24% 1.2 mph W1.9 kmh W 2.3 mph3.7 kmh 29.83 in1010.2 mb - 0.00 in0.0 mm 0.00 in0.0 mm
09:10 AM 76.5°F24.7°C 38.0°F3.3°C 25% 1.2 mph W1.9 kmh W 3.5 mph5.6 kmh 29.83 in1010.2 mb - 0.00 in0.0 mm 0.00 in0.0 mm
09:00 AM 75.2°F24.0°C 35.9°F2.2°C 24% 1.2 mph SE1.9 kmh SE 2.3 mph3.7 kmh 29.83 in1010.2 mb - 0.00 in0.0 mm 0.00 in0.0 mm
08:55 AM 74.1°F23.4°C 37.0°F2.8°C 26% Calm Calm 1.2 mph1.9 kmh 29.82 in1009.8 mb - 0.00 in0.0 mm 0.00 in0.0 mm
08:50 AM 73.2°F22.9°C 37.2°F2.9°C 27% 1.2 mph SE1.9 kmh SE 2.3 mph3.7 kmh 29.82 in1009.8 mb - 0.00 in0.0 mm 0.00 in0.0 mm
08:45 AM 72.4°F22.4°C 35.6°F2.0°C 26% 1.2 mph SE1.9 kmh SE 2.3 mph3.7 kmh 29.82 in1009.8 mb - 0.00 in0.0 mm 0.00 in0.0 mm
08:40 AM 71.7°F22.1°C 35.0°F1.7°C 26% Calm Calm 1.2 mph1.9 kmh 29.82 in1009.8 mb - 0.00 in0.0 mm 0.00 in0.0 mm
08:35 AM 71.3°F21.8°C 35.5°F1.9°C 27% Calm Calm -- 29.82 in1009.8 mb - 0.00 in0.0 mm 0.00 in0.0 mm
08:30 AM 71.0°F21.7°C 35.3°F1.8°C 27% Calm Calm -- 29.82 in1009.8 mb - 0.00 in0.0 mm 0.00 in0.0 mm
08:25 AM 70.6°F21.4°C 34.0°F1.1°C 26% Calm Calm -- 29.82 in1009.8 mb - 0.00 in0.0 mm 0.00 in0.0 mm
08:20 AM 70.0°F21.1°C 33.5°F0.8°C 26% Calm Calm -- 29.82 in1009.8 mb - 0.00 in0.0 mm 0.00 in0.0 mm
08:15 AM 69.3°F20.7°C 34.8°F1.6°C 28% Calm Calm -- 29.81 in1009.5 mb - 0.00 in0.0 mm 0.00 in0.0 mm
08:10 AM 69.0°F20.6°C 35.4°F1.9°C 29% Calm Calm -- 29.82 in1009.8 mb - 0.00 in0.0 mm 0.00 in0.0 mm
08:00 AM 67.8°F19.9°C 34.4°F1.3°C 29% Calm Calm -- 29.81 in1009.5 mb - 0.00 in0.0 mm 0.00 in0.0 mm
07:55 AM 67.0°F19.4°C 34.5°F1.4°C 30% Calm Calm -- 29.80 in1009.1 mb - 0.00 in0.0 mm 0.00 in0.0 mm
07:50 AM 66.3°F19.1°C 34.7°F1.5°C 31% 1.2 mph SE1.9 kmh SE 1.2 mph1.9 kmh 29.80 in1009.1 mb - 0.00 in0.0 mm 0.00 in0.0 mm
07:45 AM 65.8°F18.8°C 34.3°F1.3°C 31% 1.2 mph SE1.9 kmh SE 2.3 mph3.7 kmh 29.80 in1009.1 mb - 0.00 in0.0 mm 0.00 in0.0 mm
07:40 AM 65.6°F18.7°C 34.1°F1.2°C 31% 1.2 mph SE1.9 kmh SE 2.3 mph3.7 kmh 29.80 in1009.1 mb - 0.00 in0.0 mm 0.00 in0.0 mm
07:35 AM 65.6°F18.7°C 34.1°F1.2°C 31% 2.3 mph SE3.7 kmh SE 2.3 mph3.7 kmh 29.80 in1009.1 mb - 0.00 in0.0 mm 0.00 in0.0 mm
07:30 AM 65.6°F18.7°C 34.2°F1.2°C 31% 2.3 mph SE3.7 kmh SE 2.3 mph3.7 kmh 29.80 in1009.1 mb - 0.00 in0.0 mm 0.00 in0.0 mm
07:25 AM 65.8°F18.8°C 33.5°F0.8°C 30% 1.2 mph SE1.9 kmh SE 2.3 mph3.7 kmh 29.80 in1009.1 mb - 0.00 in0.0 mm 0.00 in0.0 mm
07:20 AM 65.9°F18.8°C 33.6°F0.9°C 30% 1.2 mph SE1.9 kmh SE 2.3 mph3.7 kmh 29.80 in1009.1 mb - 0.00 in0.0 mm 0.00 in0.0 mm
07:15 AM 65.9°F18.8°C 33.6°F0.9°C 30% 1.2 mph SE1.9 kmh SE 2.3 mph3.7 kmh 29.79 in1008.8 mb - 0.00 in0.0 mm 0.00 in0.0 mm
07:10 AM 65.9°F18.8°C 33.5°F0.8°C 30% Calm Calm -- 29.79 in1008.8 mb - 0.00 in0.0 mm 0.00 in0.0 mm
07:00 AM 65.9°F18.8°C 33.5°F0.8°C 30% 1.2 mph NNE1.9 kmh NNE 2.3 mph3.7 kmh 29.79 in1008.8 mb - 0.00 in0.0 mm 0.00 in0.0 mm
06:55 AM 65.8°F18.8°C 33.5°F0.8°C 30% 1.2 mph NNE1.9 kmh NNE 1.2 mph1.9 kmh 29.79 in1008.8 mb - 0.00 in0.0 mm 0.00 in0.0 mm
06:50 AM 65.8°F18.8°C 33.5°F0.8°C 30% 1.2 mph N1.9 kmh N 2.3 mph3.7 kmh 29.79 in1008.8 mb - 0.00 in0.0 mm 0.00 in0.0 mm
06:45 AM 65.6°F18.7°C 33.3°F0.7°C 30% 1.2 mph N1.9 kmh N 2.3 mph3.7 kmh 29.79 in1008.8 mb - 0.00 in0.0 mm 0.00 in0.0 mm
06:40 AM 65.6°F18.7°C 33.3°F0.7°C 30% 1.2 mph NW1.9 kmh NW 2.3 mph3.7 kmh 29.79 in1008.8 mb - 0.00 in0.0 mm 0.00 in0.0 mm
06:35 AM 65.5°F18.6°C 33.2°F0.7°C 30% 1.2 mph NW1.9 kmh NW 2.3 mph3.7 kmh 29.79 in1008.8 mb - 0.00 in0.0 mm 0.00 in0.0 mm
06:30 AM 65.4°F18.6°C 33.2°F0.7°C 30% 1.2 mph NW1.9 kmh NW 2.3 mph3.7 kmh 29.79 in1008.8 mb - 0.00 in0.0 mm 0.00 in0.0 mm
06:25 AM 65.4°F18.6°C 33.1°F0.6°C 30% 1.2 mph NW1.9 kmh NW 2.3 mph3.7 kmh 29.79 in1008.8 mb - 0.00 in0.0 mm 0.00 in0.0 mm
06:20 AM 65.3°F18.5°C 33.0°F0.6°C 30% 1.2 mph NW1.9 kmh NW 2.3 mph3.7 kmh 29.79 in1008.8 mb - 0.00 in0.0 mm 0.00 in0.0 mm
06:15 AM 65.2°F18.4°C 33.0°F0.6°C 30% 1.2 mph NW1.9 kmh NW 2.3 mph3.7 kmh 29.79 in1008.8 mb - 0.00 in0.0 mm 0.00 in0.0 mm
06:10 AM 65.2°F18.4°C 32.9°F0.5°C 30% 1.2 mph NW1.9 kmh NW 2.3 mph3.7 kmh 29.79 in1008.8 mb - 0.00 in0.0 mm 0.00 in0.0 mm
06:00 AM 65.3°F18.5°C 33.1°F0.6°C 30% 1.2 mph NW1.9 kmh NW 2.3 mph3.7 kmh 29.79 in1008.8 mb - 0.00 in0.0 mm 0.00 in0.0 mm
05:55 AM 65.7°F18.7°C 33.4°F0.8°C 30% 2.3 mph NW3.7 kmh NW 2.3 mph3.7 kmh 29.79 in1008.8 mb - 0.00 in0.0 mm 0.00 in0.0 mm
05:50 AM 65.9°F18.8°C 33.6°F0.9°C 30% 2.3 mph NW3.7 kmh NW 2.3 mph3.7 kmh 29.80 in1009.1 mb - 0.00 in0.0 mm 0.00 in0.0 mm
05:45 AM 66.1°F18.9°C 33.7°F0.9°C 30% 1.2 mph NW1.9 kmh NW 2.3 mph3.7 kmh 29.79 in1008.8 mb - 0.00 in0.0 mm 0.00 in0.0 mm
05:40 AM 66.1°F18.9°C 32.9°F0.5°C 29% 1.2 mph NW1.9 kmh NW 2.3 mph3.7 kmh 29.80 in1009.1 mb - 0.00 in0.0 mm 0.00 in0.0 mm
05:35 AM 66.1°F18.9°C 32.9°F0.5°C 29% 1.2 mph NW1.9 kmh NW 2.3 mph3.7 kmh 29.80 in1009.1 mb - 0.00 in0.0 mm 0.00 in0.0 mm
05:30 AM 66.2°F19.0°C 33.0°F0.6°C 29% 1.2 mph NW1.9 kmh NW 2.3 mph3.7 kmh 29.79 in1008.8 mb - 0.00 in0.0 mm 0.00 in0.0 mm
05:25 AM 66.3°F19.1°C 33.0°F0.6°C 29% 1.2 mph NW1.9 kmh NW 2.3 mph3.7 kmh 29.79 in1008.8 mb - 0.00 in0.0 mm 0.00 in0.0 mm
05:15 AM 66.0°F18.9°C 33.7°F0.9°C 30% Calm Calm 2.3 mph3.7 kmh 29.80 in1009.1 mb - 0.00 in0.0 mm 0.00 in0.0 mm
05:00 AM 66.0°F18.9°C 33.6°F0.9°C 30% Calm Calm -- 29.80 in1009.1 mb - 0.00 in0.0 mm 0.00 in0.0 mm
04:45 AM 65.8°F18.8°C 33.5°F0.8°C 30% Calm Calm -- 29.80 in1009.1 mb - 0.00 in0.0 mm 0.00 in0.0 mm
04:41 AM 65.8°F18.8°C 33.5°F0.8°C 30% Calm Calm -- 29.80 in1009.1 mb - 0.00 in0.0 mm 0.00 in0.0 mm
04:20 AM 65.5°F18.6°C 34.1°F1.2°C 31% 1.2 mph NW1.9 kmh NW 1.2 mph1.9 kmh 29.80 in1009.1 mb - 0.00 in0.0 mm 0.00 in0.0 mm
04:15 AM 65.5°F18.6°C 33.2°F0.7°C 30% 1.2 mph NW1.9 kmh NW 2.3 mph3.7 kmh 29.80 in1009.1 mb - 0.00 in0.0 mm 0.00 in0.0 mm
04:10 AM 65.4°F18.6°C 33.2°F0.7°C 30% 1.2 mph NW1.9 kmh NW 2.3 mph3.7 kmh 29.80 in1009.1 mb - 0.00 in0.0 mm 0.00 in0.0 mm
04:00 AM 65.5°F18.6°C 33.2°F0.7°C 30% 1.2 mph NW1.9 kmh NW 2.3 mph3.7 kmh 29.80 in1009.1 mb - 0.00 in0.0 mm 0.00 in0.0 mm
03:55 AM 65.3°F18.5°C 33.0°F0.6°C 30% 1.2 mph NW1.9 kmh NW 2.3 mph3.7 kmh 29.80 in1009.1 mb - 0.00 in0.0 mm 0.00 in0.0 mm
03:50 AM 65.3°F18.5°C 33.9°F1.1°C 31% 1.2 mph NW1.9 kmh NW 2.3 mph3.7 kmh 29.80 in1009.1 mb - 0.00 in0.0 mm 0.00 in0.0 mm
03:45 AM 65.5°F18.6°C 34.1°F1.2°C 31% 1.2 mph NW1.9 kmh NW 2.3 mph3.7 kmh 29.80 in1009.1 mb - 0.00 in0.0 mm 0.00 in0.0 mm
03:40 AM 65.8°F18.8°C 34.3°F1.3°C 31% 1.2 mph NW1.9 kmh NW 2.3 mph3.7 kmh 29.80 in1009.1 mb - 0.00 in0.0 mm 0.00 in0.0 mm
03:35 AM 65.9°F18.8°C 34.4°F1.3°C 31% 1.2 mph NW1.9 kmh NW 2.3 mph3.7 kmh 29.80 in1009.1 mb - 0.00 in0.0 mm 0.00 in0.0 mm
03:30 AM 66.2°F19.0°C 34.7°F1.5°C 31% Calm Calm -- 29.80 in1009.1 mb - 0.00 in0.0 mm 0.00 in0.0 mm
03:25 AM 66.3°F19.1°C 34.8°F1.6°C 31% Calm Calm -- 29.80 in1009.1 mb - 0.00 in0.0 mm 0.00 in0.0 mm
03:20 AM 66.5°F19.2°C 34.9°F1.6°C 31% Calm Calm -- 29.81 in1009.5 mb - 0.00 in0.0 mm 0.00 in0.0 mm
03:15 AM 66.7°F19.3°C 35.1°F1.7°C 31% Calm Calm -- 29.81 in1009.5 mb - 0.00 in0.0 mm 0.00 in0.0 mm
03:10 AM 66.8°F19.3°C 35.2°F1.8°C 31% Calm Calm -- 29.81 in1009.5 mb - 0.00 in0.0 mm 0.00 in0.0 mm
03:00 AM 66.7°F19.3°C 34.3°F1.3°C 30% Calm Calm -- 29.81 in1009.5 mb - 0.00 in0.0 mm 0.00 in0.0 mm
02:55 AM 66.6°F19.2°C 34.2°F1.2°C 30% Calm Calm -- 29.81 in1009.5 mb - 0.00 in0.0 mm 0.00 in0.0 mm
02:50 AM 66.5°F19.2°C 34.9°F1.6°C 31% Calm Calm -- 29.81 in1009.5 mb - 0.00 in0.0 mm 0.00 in0.0 mm
02:45 AM 66.5°F19.2°C 35.7°F2.1°C 32% Calm Calm -- 29.81 in1009.5 mb - 0.00 in0.0 mm 0.00 in0.0 mm
02:40 AM 66.5°F19.2°C 35.7°F2.1°C 32% Calm Calm -- 29.81 in1009.5 mb - 0.00 in0.0 mm 0.00 in0.0 mm
02:35 AM 66.4°F19.1°C 35.7°F2.1°C 32% 1.2 mph NW1.9 kmh NW 2.3 mph3.7 kmh 29.81 in1009.5 mb - 0.00 in0.0 mm 0.00 in0.0 mm
02:30 AM 66.4°F19.1°C 35.6°F2.0°C 32% 1.2 mph NW1.9 kmh NW 2.3 mph3.7 kmh 29.81 in1009.5 mb - 0.00 in0.0 mm 0.00 in0.0 mm
02:25 AM 66.3°F19.1°C 35.5°F1.9°C 32% 1.2 mph NW1.9 kmh NW 2.3 mph3.7 kmh 29.81 in1009.5 mb - 0.00 in0.0 mm 0.00 in0.0 mm
02:20 AM 66.2°F19.0°C 35.4°F1.9°C 32% 1.2 mph NW1.9 kmh NW 2.3 mph3.7 kmh 29.81 in1009.5 mb - 0.00 in0.0 mm 0.00 in0.0 mm
02:15 AM 66.1°F18.9°C 35.4°F1.9°C 32% 1.2 mph NW1.9 kmh NW 2.3 mph3.7 kmh 29.81 in1009.5 mb - 0.00 in0.0 mm 0.00 in0.0 mm
02:10 AM 66.1°F18.9°C 35.4°F1.9°C 32% 1.2 mph NW1.9 kmh NW 2.3 mph3.7 kmh 29.81 in1009.5 mb - 0.00 in0.0 mm 0.00 in0.0 mm
02:00 AM 66.3°F19.1°C 35.6°F2.0°C 32% 2.3 mph NW3.7 kmh NW 2.3 mph3.7 kmh 29.81 in1009.5 mb - 0.00 in0.0 mm 0.00 in0.0 mm
01:55 AM 66.4°F19.1°C 35.6°F2.0°C 32% 1.2 mph NW1.9 kmh NW 2.3 mph3.7 kmh 29.81 in1009.5 mb - 0.00 in0.0 mm 0.00 in0.0 mm
01:50 AM 66.5°F19.2°C 35.7°F2.1°C 32% 1.2 mph NW1.9 kmh NW 2.3 mph3.7 kmh 29.81 in1009.5 mb - 0.00 in0.0 mm 0.00 in0.0 mm
01:45 AM 66.6°F19.2°C 35.8°F2.1°C 32% 1.2 mph NW1.9 kmh NW 2.3 mph3.7 kmh 29.81 in1009.5 mb - 0.00 in0.0 mm 0.00 in0.0 mm
01:40 AM 66.7°F19.3°C 36.7°F2.6°C 33% 1.2 mph NW1.9 kmh NW 2.3 mph3.7 kmh 29.81 in1009.5 mb - 0.00 in0.0 mm 0.00 in0.0 mm
01:35 AM 66.8°F19.3°C 36.0°F2.2°C 32% 2.3 mph NW3.7 kmh NW 2.3 mph3.7 kmh 29.81 in1009.5 mb - 0.00 in0.0 mm 0.00 in0.0 mm
01:30 AM 66.8°F19.3°C 36.8°F2.7°C 33% 1.2 mph NW1.9 kmh NW 2.3 mph3.7 kmh 29.81 in1009.5 mb - 0.00 in0.0 mm 0.00 in0.0 mm
01:25 AM 66.5°F19.2°C 36.5°F2.5°C 33% 1.2 mph NW1.9 kmh NW 2.3 mph3.7 kmh 29.82 in1009.8 mb - 0.00 in0.0 mm 0.00 in0.0 mm
01:20 AM 66.3°F19.1°C 36.3°F2.4°C 33% 1.2 mph NW1.9 kmh NW 2.3 mph3.7 kmh 29.82 in1009.8 mb - 0.00 in0.0 mm 0.00 in0.0 mm
01:15 AM 66.4°F19.1°C 36.4°F2.4°C 33% 1.2 mph NW1.9 kmh NW 2.3 mph3.7 kmh 29.82 in1009.8 mb - 0.00 in0.0 mm 0.00 in0.0 mm
01:10 AM 66.5°F19.2°C 36.4°F2.4°C 33% 2.3 mph NW3.7 kmh NW 2.3 mph3.7 kmh 29.82 in1009.8 mb - 0.00 in0.0 mm 0.00 in0.0 mm
01:00 AM 67.0°F19.4°C 36.9°F2.7°C 33% 1.2 mph NW1.9 kmh NW 2.3 mph3.7 kmh 29.82 in1009.8 mb - 0.00 in0.0 mm 0.00 in0.0 mm
12:55 AM 67.2°F19.6°C 36.3°F2.4°C 32% 2.3 mph NW3.7 kmh NW 2.3 mph3.7 kmh 29.82 in1009.8 mb - 0.00 in0.0 mm 0.00 in0.0 mm
12:50 AM 67.4°F19.7°C 36.5°F2.5°C 32% 1.2 mph NW1.9 kmh NW 2.3 mph3.7 kmh 29.82 in1009.8 mb - 0.00 in0.0 mm 0.00 in0.0 mm
12:45 AM 67.5°F19.7°C 36.6°F2.6°C 32% 1.2 mph NW1.9 kmh NW 2.3 mph3.7 kmh 29.82 in1009.8 mb - 0.00 in0.0 mm 0.00 in0.0 mm
12:40 AM 67.6°F19.8°C 36.6°F2.6°C 32% 1.2 mph NW1.9 kmh NW 1.2 mph1.9 kmh 29.82 in1009.8 mb - 0.00 in0.0 mm 0.00 in0.0 mm
12:35 AM 67.6°F19.8°C 36.7°F2.6°C 32% Calm Calm 2.3 mph3.7 kmh 29.82 in1009.8 mb - 0.00 in0.0 mm 0.00 in0.0 mm
12:30 AM 67.5°F19.7°C 37.4°F3.0°C 33% 1.2 mph NW1.9 kmh NW 1.2 mph1.9 kmh 29.82 in1009.8 mb - 0.00 in0.0 mm 0.00 in0.0 mm
12:25 AM 67.6°F19.8°C 37.5°F3.1°C 33% 1.2 mph NW1.9 kmh NW 2.3 mph3.7 kmh 29.82 in1009.8 mb - 0.00 in0.0 mm 0.00 in0.0 mm
12:20 AM 67.6°F19.8°C 37.4°F3.0°C 33% 1.2 mph NW1.9 kmh NW 2.3 mph3.7 kmh 29.82 in1009.8 mb - 0.00 in0.0 mm 0.00 in0.0 mm
12:15 AM 67.4°F19.7°C 37.3°F2.9°C 33% 1.2 mph NW1.9 kmh NW 2.3 mph3.7 kmh 29.82 in1009.8 mb - 0.00 in0.0 mm 0.00 in0.0 mm
12:10 AM 67.4°F19.7°C 37.3°F2.9°C 33% 1.2 mph NW1.9 kmh NW 2.3 mph3.7 kmh 29.82 in1009.8 mb - 0.00 in0.0 mm 0.00 in0.0 mm
12:00 AM 68.0°F20.0°C 37.8°F3.2°C 33% 1.2 mph NW1.9 kmh NW 3.5 mph5.6 kmh 29.82 in1009.8 mb - 0.00 in0.0 mm 0.00 in0.0 mm